Time;durP1;ratioP1;P1;durP2;ratioP2;P2;SDS_P1;SDS_P2;PMS_P1;PMS_P2;Temp;Humidity;BMP_temperature;BMP_pressure;BME280_temperature;BME280_humidity;BME280_pressure;Samples;Min_cycle;Max_cycle;Signal;HPM_P1;HPM_P2
2022/11/26 00:02:25;;;;;;;1.55;1.45;;;;;;;2.08;100.00;100660.63;6160195;23;20442;-85
2022/11/26 00:04:51;;;;;;;0.40;0.40;;;;;;;2.08;100.00;100661.44;6185800;23;20009;-83
2022/11/26 00:07:21;;;;;;;1.27;1.08;;;;;;;1.97;100.00;100656.94;6186823;23;20451;-83
2022/11/26 00:09:49;;;;;;;2.45;2.25;;;;;;;2.02;100.00;100664.84;6189096;23;20013;-83
2022/11/26 00:12:19;;;;;;;2.30;2.10;;;;;;;2.02;100.00;100664.84;6188335;23;20013;-83
2022/11/26 00:14:46;;;;;;;3.20;2.92;;;;;;;1.88;100.00;100666.16;6187534;23;20086;-83
2022/11/26 00:17:12;;;;;;;2.55;1.75;;;;;;;1.85;100.00;100661.41;6214178;23;20017;-83
2022/11/26 00:19:38;;;;;;;3.38;3.00;;;;;;;1.92;100.00;100671.69;6187916;23;20008;-83
2022/11/26 00:22:05;;;;;;;4.72;3.65;;;;;;;1.85;100.00;100669.63;6188198;23;20013;-83
2022/11/26 00:24:30;;;;;;;2.50;2.33;;;;;;;1.91;100.00;100681.03;6186740;23;20021;-83
2022/11/26 00:26:58;;;;;;;9.48;4.97;;;;;;;1.86;100.00;100690.34;6186096;23;20512;-83
2022/11/26 00:29:23;;;;;;;1.48;1.38;;;;;;;1.82;100.00;100694.94;6186911;23;20067;-83
2022/11/26 00:31:49;;;;;;;3.80;3.05;;;;;;;1.85;100.00;100687.97;6161695;23;20013;-83
2022/11/26 00:34:14;;;;;;;1.48;1.38;;;;;;;1.80;100.00;100691.81;6184786;23;20092;-83
2022/11/26 00:36:42;;;;;;;3.75;2.90;;;;;;;1.73;100.00;100691.66;6211670;23;20012;-83
2022/11/26 00:39:15;;;;;;;1.08;1.08;;;;;;;1.71;100.00;100693.97;6186002;23;20441;-82
2022/11/26 00:41:47;;;;;;;2.95;1.20;;;;;;;1.59;100.00;100674.97;6211785;23;20636;-83
2022/11/26 00:44:23;;;;;;;2.58;2.38;;;;;;;1.60;100.00;100673.03;6185786;23;20020;-83
2022/11/26 00:46:49;;;;;;;2.70;2.45;;;;;;;1.61;100.00;100680.88;6211543;23;20016;-85
2022/11/26 00:49:15;;;;;;;2.10;1.65;;;;;;;1.62;100.00;100682.44;6213189;23;20035;-84
2022/11/26 00:51:41;;;;;;;2.05;1.85;;;;;;;1.59;100.00;100682.38;6186370;23;20015;-85
2022/11/26 00:54:09;;;;;;;2.47;2.10;;;;;;;1.54;100.00;100688.94;6185583;23;20403;-84
2022/11/26 00:56:35;;;;;;;1.42;1.33;;;;;;;1.39;100.00;100682.41;6186135;23;20416;-85
2022/11/26 00:59:00;;;;;;;1.83;1.73;;;;;;;1.42;100.00;100683.59;6185040;23;20001;-84
2022/11/26 01:01:27;;;;;;;2.85;2.30;;;;;;;1.47;100.00;100699.72;6211311;23;20012;-84
2022/11/26 01:03:53;;;;;;;2.78;2.55;;;;;;;1.51;100.00;100689.66;6186544;23;20012;-85
2022/11/26 01:06:21;;;;;;;1.70;1.60;;;;;;;1.57;100.00;100693.69;6212100;23;20012;-84
2022/11/26 01:08:47;;;;;;;1.83;1.73;;;;;;;1.59;100.00;100691.38;6186205;23;20008;-84
2022/11/26 01:11:18;;;;;;;5.45;1.83;;;;;;;1.57;100.00;100690.97;6185564;23;20024;-84
2022/11/26 01:13:45;;;;;;;2.83;1.98;;;;;;;1.59;100.00;100694.13;6211680;23;20505;-84
2022/11/26 01:16:18;;;;;;;2.13;1.45;;;;;;;1.66;100.00;100701.69;6186531;23;20012;-85
2022/11/26 01:18:45;;;;;;;0.70;0.70;;;;;;;1.71;100.00;100690.44;6212401;23;20085;-85
2022/11/26 01:21:10;;;;;;;2.83;2.25;;;;;;;1.73;100.00;100696.34;6213464;23;20051;-85
2022/11/26 01:23:36;;;;;;;0.43;0.43;;;;;;;1.72;100.00;100692.03;6212410;23;20016;-83
2022/11/26 01:26:02;;;;;;;7.43;3.00;;;;;;;1.66;100.00;100691.50;6212716;23;20013;-83
2022/11/26 01:28:27;;;;;;;1.40;1.05;;;;;;;1.74;100.00;100695.19;6161511;23;20012;-83
2022/11/26 01:30:52;;;;;;;3.70;3.40;;;;;;;1.68;100.00;100680.22;6161034;23;20012;-83
2022/11/26 01:33:18;;;;;;;2.65;1.67;;;;;;;1.77;100.00;100687.06;6186037;23;20527;-83
2022/11/26 01:35:43;;;;;;;1.48;0.98;;;;;;;1.86;100.00;100690.34;6186293;23;20079;-83
2022/11/26 01:38:13;;;;;;;3.47;2.88;;;;;;;1.91;100.00;100685.72;6162033;23;20075;-83
2022/11/26 01:40:59;;;;;;;1.92;1.85;;;;;;;2.02;100.00;100706.69;6162465;23;20013;-83
2022/11/26 01:43:26;;;;;;;2.10;1.95;;;;;;;2.26;100.00;100713.75;6203681;23;20016;-83
2022/11/26 01:45:52;;;;;;;6.82;3.25;;;;;;;2.37;100.00;100720.19;6191525;23;20012;-83
2022/11/26 01:48:31;;;;;;;4.38;2.78;;;;;;;2.50;100.00;100718.84;6217314;23;20316;-83
2022/11/26 01:51:02;;;;;;;2.08;1.88;;;;;;;2.62;100.00;100735.09;6244192;23;20066;-83
2022/11/26 01:54:03;;;;;;;1.85;1.50;;;;;;;2.63;100.00;100739.41;6243734;23;20051;-82
2022/11/26 01:56:38;;;;;;;2.17;1.92;;;;;;;2.66;100.00;100746.91;6195784;23;20051;-83
2022/11/26 01:59:08;;;;;;;1.88;1.40;;;;;;;2.70;100.00;100750.50;6217047;23;20324;-82
2022/11/26 02:04:13;;;;;;;1.55;1.48;;;;;;;2.41;100.00;100761.31;6261587;22;20082;-80
2022/11/26 02:06:40;;;;;;;2.35;2.20;;;;;;;2.27;100.00;100767.31;6244443;22;20023;-80
2022/11/26 02:09:07;;;;;;;1.75;1.42;;;;;;;2.14;100.00;100769.47;6271368;22;20419;-80
2022/11/26 02:11:33;;;;;;;3.08;2.78;;;;;;;2.15;100.00;100756.53;6247330;22;20314;-80
2022/11/26 02:14:02;;;;;;;1.42;1.33;;;;;;;2.12;100.00;100762.75;6274091;22;20011;-79
2022/11/26 02:16:46;;;;;;;3.20;2.05;;;;;;;2.01;100.00;100756.28;6247616;22;20093;-79
2022/11/26 02:19:33;;;;;;;0.95;0.95;;;;;;;1.94;100.00;100756.94;6244236;22;20019;-80
2022/11/26 02:22:08;;;;;;;0.38;0.38;;;;;;;2.00;100.00;100751.97;6272795;22;20380;-80
2022/11/26 02:24:41;;;;;;;3.50;1.67;;;;;;;2.03;100.00;100756.69;6273162;22;20026;-80
2022/11/26 02:27:28;;;;;;;0.38;0.38;;;;;;;2.09;100.00;100767.00;6244919;22;20507;-80
2022/11/26 02:30:20;;;;;;;2.67;2.17;;;;;;;2.19;100.00;100768.34;6273811;22;20095;-80
2022/11/26 02:32:58;;;;;;;0.75;0.75;;;;;;;2.24;100.00;100766.13;6266990;22;20019;-79
2022/11/26 02:35:36;;;;;;;2.13;1.92;;;;;;;2.29;100.00;100762.28;6220918;22;20107;-80
2022/11/26 02:38:08;;;;;;;1.42;1.33;;;;;;;2.36;100.00;100767.88;6246320;22;20027;-79
2022/11/26 02:40:34;;;;;;;5.03;2.40;;;;;;;2.37;100.00;100755.00;6245996;22;20448;-83
2022/11/26 02:43:00;;;;;;;0.98;0.98;;;;;;;2.39;100.00;100767.16;6245779;22;20016;-83
2022/11/26 02:45:28;;;;;;;1.00;0.98;;;;;;;2.43;100.00;100770.75;6273652;22;20004;-83
2022/11/26 02:47:56;;;;;;;1.65;1.55;;;;;;;2.40;100.00;100766.00;6273731;22;20534;-83
2022/11/26 02:50:41;;;;;;;1.45;1.35;;;;;;;2.43;100.00;100783.66;6221659;22;20015;-83
2022/11/26 02:53:08;;;;;;;1.95;1.75;;;;;;;2.45;100.00;100776.66;6245465;22;20016;-83
2022/11/26 02:55:37;;;;;;;1.52;1.45;;;;;;;2.46;100.00;100782.94;6197184;22;20069;-82
2022/11/26 02:58:02;;;;;;;5.18;2.17;;;;;;;2.40;100.00;100796.13;6246802;22;20007;-83
2022/11/26 03:00:30;;;;;;;3.35;3.05;;;;;;;2.40;100.00;100793.38;6195409;22;20015;-80
2022/11/26 03:03:00;;;;;;;1.48;0.98;;;;;;;2.36;100.00;100806.22;6245658;22;20501;-80
2022/11/26 03:05:31;;;;;;;4.40;1.88;;;;;;;2.33;100.00;100804.22;6246600;22;20035;-79
2022/11/26 03:07:57;;;;;;;2.88;2.67;;;;;;;2.25;100.00;100805.22;6245738;22;20034;-80
2022/11/26 03:10:25;;;;;;;0.80;0.80;;;;;;;2.26;100.00;100804.09;6272089;22;20016;-80
2022/11/26 03:12:50;;;;;;;2.20;2.08;;;;;;;2.24;100.00;100814.59;6221972;22;20426;-80
2022/11/26 03:15:16;;;;;;;2.95;2.67;;;;;;;2.12;100.00;100809.28;6247192;22;20003;-80
2022/11/26 03:17:41;;;;;;;0.57;0.45;;;;;;;2.08;100.00;100833.03;6274360;22;20039;-82
2022/11/26 03:20:07;;;;;;;2.20;2.10;;;;;;;1.93;100.00;100826.50;6246323;22;20456;-80
2022/11/26 03:22:34;;;;;;;2.30;0.93;;;;;;;1.96;100.00;100835.91;6247460;22;20012;-80
2022/11/26 03:25:00;;;;;;;1.55;1.45;;;;;;;1.80;100.00;100834.03;6247468;22;20502;-79
2022/11/26 03:27:26;;;;;;;2.33;2.13;;;;;;;1.75;100.00;100842.53;6274278;22;20008;-80
2022/11/26 03:29:51;;;;;;;3.03;2.83;;;;;;;1.65;100.00;100843.09;6273806;22;20394;-80
2022/11/26 03:32:16;;;;;;;0.52;0.52;;;;;;;1.67;100.00;100838.03;6273621;22;20082;-80
2022/11/26 03:34:42;;;;;;;0.57;0.57;;;;;;;1.76;100.00;100838.66;6273652;22;20008;-79
2022/11/26 03:37:08;;;;;;;1.55;1.45;;;;;;;1.81;100.00;100832.91;6274002;22;20019;-83
2022/11/26 03:39:33;;;;;;;1.73;1.30;;;;;;;1.99;100.00;100835.19;6273713;22;20019;-83
2022/11/26 03:41:59;;;;;;;0.45;0.45;;;;;;;2.15;100.00;100833.97;6272812;22;20011;-83
2022/11/26 03:44:24;;;;;;;2.00;1.88;;;;;;;2.22;100.00;100825.91;6272323;22;20023;-83
2022/11/26 03:46:49;;;;;;;0.30;0.30;;;;;;;2.26;100.00;100825.97;6245654;22;20016;-83
2022/11/26 03:49:15;;;;;;;1.67;1.55;;;;;;;2.28;100.00;100818.19;6244191;22;19996;-83
2022/11/26 03:51:40;;;;;;;1.23;1.15;;;;;;;2.28;100.00;100816.25;6273331;22;20042;-82
2022/11/26 03:54:06;;;;;;;1.83;1.33;;;;;;;2.35;100.00;100821.06;6243810;22;20022;-83
2022/11/26 03:56:31;;;;;;;1.27;1.20;;;;;;;2.39;100.00;100816.44;6273418;22;20018;-80
2022/11/26 03:58:57;;;;;;;0.30;0.30;;;;;;;2.45;100.00;100820.47;6272588;22;20003;-80
2022/11/26 04:01:22;;;;;;;1.05;1.00;;;;;;;2.48;100.00;100822.47;6245220;22;20460;-80
2022/11/26 04:03:48;;;;;;;0.77;0.77;;;;;;;2.53;100.00;100824.94;6272788;22;20069;-80
2022/11/26 04:06:13;;;;;;;0.35;0.35;;;;;;;2.54;100.00;100833.94;6271166;22;20467;-80
2022/11/26 04:08:39;;;;;;;0.10;0.10;;;;;;;2.60;100.00;100836.00;6244472;22;20122;-80
2022/11/26 04:11:04;;;;;;;2.55;1.13;;;;;;;2.60;100.00;100837.94;6271944;22;20000;-80
2022/11/26 04:13:30;;;;;;;5.05;1.95;;;;;;;2.57;100.00;100844.94;6273950;22;20126;-83
2022/11/26 04:15:55;;;;;;;1.75;1.30;;;;;;;2.51;100.00;100851.09;6245997;22;20012;-80
2022/11/26 04:18:21;;;;;;;0.70;0.70;;;;;;;2.38;100.00;100853.22;6270947;22;20062;-80
2022/11/26 04:20:46;;;;;;;1.30;1.25;;;;;;;2.45;100.00;100855.28;6271546;22;20170;-80
2022/11/26 04:23:12;;;;;;;1.55;1.30;;;;;;;2.40;100.00;100863.78;6272972;22;20065;-80
2022/11/26 04:25:37;;;;;;;0.20;0.20;;;;;;;2.44;100.00;100867.38;6273082;22;20088;-79
2022/11/26 04:28:03;;;;;;;1.80;1.23;;;;;;;2.45;100.00;100866.22;6273419;22;20012;-80
2022/11/26 04:30:28;;;;;;;0.20;0.20;;;;;;;2.50;100.00;100866.75;6270403;22;20007;-80
2022/11/26 04:32:54;;;;;;;0.25;0.25;;;;;;;2.47;100.00;100872.16;6272528;22;20050;-80
2022/11/26 04:35:19;;;;;;;0.85;0.85;;;;;;;2.52;100.00;100875.38;6275025;22;20002;-83
2022/11/26 04:37:44;;;;;;;0.63;0.63;;;;;;;2.58;100.00;100892.31;6273076;22;20020;-82
2022/11/26 04:40:10;;;;;;;2.83;1.65;;;;;;;2.62;100.00;100891.22;6273238;22;20065;-83
2022/11/26 04:42:36;;;;;;;5.57;2.20;;;;;;;2.62;100.00;100888.50;6273914;22;20368;-83
2022/11/26 04:45:02;;;;;;;1.33;1.27;;;;;;;2.69;100.00;100896.84;6274096;22;20046;-83
2022/11/26 04:47:28;;;;;;;1.48;1.40;;;;;;;2.68;100.00;100897.97;6274800;22;20007;-83
2022/11/26 04:49:53;;;;;;;1.38;1.27;;;;;;;2.67;100.00;100910.09;6246474;22;20433;-83
2022/11/26 04:52:18;;;;;;;0.40;0.40;;;;;;;2.72;100.00;100912.53;6274553;22;20078;-83
2022/11/26 04:54:44;;;;;;;1.17;0.95;;;;;;;2.71;100.00;100915.66;6246819;22;20018;-80
2022/11/26 04:57:09;;;;;;;0.88;0.85;;;;;;;2.72;100.00;100912.53;6246209;22;20008;-80
2022/11/26 04:59:35;;;;;;;0.88;0.88;;;;;;;2.79;100.00;100917.38;6274397;22;20014;-80
2022/11/26 05:02:01;;;;;;;0.90;0.90;;;;;;;2.85;100.00;100917.84;6274472;22;20007;-80
2022/11/26 05:04:27;;;;;;;1.25;1.17;;;;;;;2.88;100.00;100922.59;6245522;22;20024;-80
2022/11/26 05:06:53;;;;;;;2.78;1.75;;;;;;;2.89;100.00;100927.72;6246559;22;20453;-80
2022/11/26 05:09:19;;;;;;;2.05;1.92;;;;;;;2.88;100.00;100930.81;6244691;22;20070;-80
2022/11/26 05:11:44;;;;;;;2.15;1.55;;;;;;;2.87;100.00;100932.00;6274308;22;20011;-83
2022/11/26 05:14:10;;;;;;;1.77;1.30;;;;;;;2.75;100.00;100933.72;6275026;22;20000;-79
2022/11/26 05:16:35;;;;;;;0.95;0.95;;;;;;;2.74;100.00;100937.63;6273407;22;20012;-80
2022/11/26 05:19:00;;;;;;;0.60;0.60;;;;;;;2.77;100.00;100933.38;6275179;22;20034;-80
2022/11/26 05:21:26;;;;;;;0.57;0.57;;;;;;;2.65;100.00;100939.00;6274126;22;20011;-80
2022/11/26 05:23:51;;;;;;;0.25;0.25;;;;;;;2.67;100.00;100937.47;6245717;22;20019;-80
2022/11/26 05:26:17;;;;;;;4.55;1.10;;;;;;;2.64;100.00;100929.19;6245475;22;20003;-80
2022/11/26 05:28:42;;;;;;;1.05;0.95;;;;;;;2.67;100.00;100934.75;6273833;22;20039;-80
2022/11/26 05:31:08;;;;;;;1.33;0.90;;;;;;;2.69;100.00;100940.66;6245731;22;20008;-80
2022/11/26 05:33:33;;;;;;;0.50;0.50;;;;;;;2.63;100.00;100936.63;6274453;22;20437;-80
2022/11/26 05:35:59;;;;;;;1.30;1.20;;;;;;;2.52;100.00;100941.09;6272295;22;20016;-80
2022/11/26 05:38:24;;;;;;;2.10;1.98;;;;;;;2.56;100.00;100941.97;6245208;22;20016;-80
2022/11/26 05:40:50;;;;;;;0.75;0.75;;;;;;;2.58;100.00;100942.41;6273875;22;20418;-80
2022/11/26 05:43:15;;;;;;;2.53;2.35;;;;;;;2.54;100.00;100940.75;6271963;22;20016;-80
2022/11/26 05:45:41;;;;;;;1.15;1.10;;;;;;;2.58;100.00;100945.16;6273705;22;20039;-80
2022/11/26 05:48:09;;;;;;;1.40;1.17;;;;;;;2.50;100.00;100948.91;6273003;22;20019;-80
2022/11/26 05:50:35;;;;;;;0.65;0.65;;;;;;;2.51;100.00;100934.03;6273002;22;20034;-83
2022/11/26 05:53:00;;;;;;;2.30;0.90;;;;;;;2.56;100.00;100954.84;6273588;22;20388;-83
2022/11/26 05:55:26;;;;;;;0.30;0.30;;;;;;;2.54;100.00;100955.25;6272576;22;20133;-83
2022/11/26 05:57:51;;;;;;;1.33;1.23;;;;;;;2.58;100.00;100961.59;6246472;22;20028;-83
2022/11/26 06:00:17;;;;;;;2.15;1.95;;;;;;;2.62;100.00;100954.22;6273132;22;20433;-83
2022/11/26 06:02:43;;;;;;;1.02;1.00;;;;;;;2.75;100.00;100957.59;6246638;22;20012;-82
2022/11/26 06:05:09;;;;;;;3.30;1.38;;;;;;;2.78;100.00;100949.47;6273763;22;20459;-83
2022/11/26 06:07:35;;;;;;;3.78;3.50;;;;;;;2.81;100.00;100956.16;6271689;22;20011;-82
2022/11/26 06:10:01;;;;;;;0.95;0.95;;;;;;;2.85;100.00;100964.44;6246709;22;20203;-80
2022/11/26 06:12:26;;;;;;;0.68;0.68;;;;;;;2.79;100.00;100945.53;6246249;22;20046;-80
2022/11/26 06:14:52;;;;;;;1.80;1.58;;;;;;;2.86;100.00;100971.50;6274504;22;19996;-80
2022/11/26 06:17:17;;;;;;;2.88;2.42;;;;;;;2.81;100.00;100972.59;6272967;22;20015;-80
2022/11/26 06:19:43;;;;;;;1.00;0.75;;;;;;;2.79;100.00;100964.72;6273328;22;20009;-80
2022/11/26 06:22:08;;;;;;;1.05;0.95;;;;;;;2.83;100.00;100973.81;6274142;22;19999;-80
2022/11/26 06:24:34;;;;;;;1.98;1.88;;;;;;;2.79;100.00;100975.69;6245749;22;20101;-80
2022/11/26 06:26:59;;;;;;;2.35;2.15;;;;;;;2.80;100.00;100976.47;6274265;22;20078;-80
2022/11/26 06:29:25;;;;;;;1.63;1.52;;;;;;;2.81;100.00;100978.88;6274101;22;20011;-82
2022/11/26 06:31:50;;;;;;;1.45;1.38;;;;;;;2.83;100.00;100979.28;6274707;22;20058;-82
2022/11/26 06:34:16;;;;;;;0.40;0.40;;;;;;;2.90;100.00;100980.59;6273455;22;20475;-82
2022/11/26 06:36:41;;;;;;;0.75;0.75;;;;;;;2.91;100.00;100979.44;6274297;22;20012;-82
2022/11/26 06:39:08;;;;;;;0.80;0.77;;;;;;;2.96;100.00;100979.13;6274232;22;20034;-83
2022/11/26 06:41:34;;;;;;;5.57;3.22;;;;;;;2.97;100.00;100983.47;6244560;22;20045;-82
2022/11/26 06:43:59;;;;;;;2.22;1.58;;;;;;;3.03;100.00;100990.25;6245325;22;20459;-83
2022/11/26 06:46:25;;;;;;;2.22;2.03;;;;;;;3.07;100.00;100991.09;6246463;22;20082;-83
2022/11/26 06:48:50;;;;;;;2.17;2.03;;;;;;;3.07;100.00;100985.63;6272339;22;20014;-80
2022/11/26 06:51:19;;;;;;;0.93;0.93;;;;;;;3.14;100.00;100993.97;6272598;22;20015;-80
2022/11/26 06:53:45;;;;;;;2.78;2.25;;;;;;;3.21;100.00;100996.84;6218750;22;20510;-80
2022/11/26 06:56:13;;;;;;;1.85;1.55;;;;;;;3.26;100.00;100996.53;6272812;22;20015;-80
2022/11/26 06:58:38;;;;;;;3.90;2.03;;;;;;;3.28;100.00;100995.00;6245475;22;20039;-81
2022/11/26 07:01:15;;;;;;;1.33;1.27;;;;;;;3.39;100.00;101006.19;6246483;22;20015;-80
2022/11/26 07:03:41;;;;;;;3.97;3.28;;;;;;;3.41;100.00;100987.41;6245348;22;20041;-80
2022/11/26 07:06:29;;;;;;;1.73;1.63;;;;;;;3.54;100.00;101005.28;6246703;22;20041;-83
2022/11/26 07:08:57;;;;;;;2.42;2.25;;;;;;;3.65;100.00;101014.47;6246979;22;20543;-80
2022/11/26 07:11:24;;;;;;;1.77;1.67;;;;;;;3.72;100.00;101009.09;6246530;22;20000;-80
2022/11/26 07:13:49;;;;;;;2.92;1.58;;;;;;;3.74;100.00;101019.72;6246211;22;20083;-80
2022/11/26 07:16:15;;;;;;;2.65;1.63;;;;;;;3.78;100.00;101017.81;6273423;22;20089;-80
2022/11/26 07:18:41;;;;;;;4.13;2.88;;;;;;;3.82;100.00;101023.34;6273804;22;20015;-80
2022/11/26 07:21:11;;;;;;;2.88;1.20;;;;;;;3.94;100.00;101029.44;6246619;22;20081;-80
2022/11/26 07:23:37;;;;;;;0.52;0.50;;;;;;;4.04;100.00;101028.03;6220017;22;20008;-80
2022/11/26 07:26:04;;;;;;;2.33;1.02;;;;;;;4.12;100.00;101024.25;6245301;22;20043;-83
2022/11/26 07:28:30;;;;;;;1.02;0.95;;;;;;;4.22;100.00;101031.84;6220273;22;20016;-83
2022/11/26 07:31:03;;;;;;;1.45;1.35;;;;;;;4.34;100.00;101034.38;6220606;22;20086;-83
2022/11/26 07:33:29;;;;;;;;;;;;;;;4.41;100.00;101030.94;6246526;22;20019;-83
2022/11/26 07:35:59;;;;;;;2.88;1.73;;;;;;;4.38;100.00;101035.22;6273945;22;19911;-83
2022/11/26 07:38:25;;;;;;;1.08;1.08;;;;;;;4.32;100.00;101025.72;6245529;22;20472;-83
2022/11/26 07:40:50;;;;;;;1.48;1.38;;;;;;;4.37;100.00;101019.88;6273772;22;20031;-83
2022/11/26 07:43:16;;;;;;;0.73;0.73;;;;;;;4.54;100.00;101035.81;6273561;22;20142;-83
2022/11/26 07:45:41;;;;;;;1.63;1.52;;;;;;;4.63;100.00;101032.81;6274039;22;20011;-80
2022/11/26 07:48:07;;;;;;;1.70;1.60;;;;;;;4.69;100.00;101028.59;6271293;22;20370;-80
2022/11/26 07:50:32;;;;;;;1.13;1.05;;;;;;;4.57;100.00;101037.81;6243842;22;20011;-81
2022/11/26 07:52:58;;;;;;;1.95;1.85;;;;;;;4.49;100.00;101036.13;6273752;22;20003;-80
2022/11/26 07:55:23;;;;;;;3.70;1.77;;;;;;;4.52;100.00;101037.38;6273564;22;20015;-80
2022/11/26 07:57:48;;;;;;;3.35;3.05;;;;;;;4.56;100.00;101047.25;6273920;22;20091;-81
2022/11/26 08:00:15;;;;;;;1.42;1.33;;;;;;;4.58;100.00;101053.16;6273226;22;20050;-80
2022/11/26 08:02:40;;;;;;;3.05;2.78;;;;;;;4.72;100.00;101043.53;6273495;22;20011;-83
2022/11/26 08:05:06;;;;;;;2.55;1.77;;;;;;;4.84;100.00;101057.03;6221459;22;20016;-81
2022/11/26 08:07:33;;;;;;;1.20;1.15;;;;;;;4.78;100.00;101053.81;6247549;22;20020;-80
2022/11/26 08:09:59;;;;;;;0.47;0.47;;;;;;;4.86;100.00;101062.94;6248396;22;20012;-80
2022/11/26 08:12:25;;;;;;;3.60;2.78;;;;;;;4.91;100.00;101059.88;6248285;22;20015;-81
2022/11/26 08:14:50;;;;;;;0.57;0.57;;;;;;;4.95;100.00;101064.25;6275466;22;20008;-81
2022/11/26 08:17:16;;;;;;;1.23;0.85;;;;;;;5.19;100.00;101062.94;6248145;22;20019;-81
2022/11/26 08:19:41;;;;;;;2.13;2.00;;;;;;;5.37;100.00;101061.19;6274548;22;20355;-81
2022/11/26 08:22:07;;;;;;;1.15;1.05;;;;;;;5.50;100.00;101062.50;6248857;22;20000;-83
2022/11/26 08:24:32;;;;;;;2.35;1.65;;;;;;;5.61;100.00;101052.41;6275189;22;20074;-81
2022/11/26 08:26:58;;;;;;;1.48;1.38;;;;;;;5.75;100.00;101061.94;6275771;22;20015;-81
2022/11/26 08:29:24;;;;;;;1.30;1.20;;;;;;;5.88;100.00;101060.53;6274689;22;20512;-81
2022/11/26 08:31:50;;;;;;;4.85;3.25;;;;;;;5.96;100.00;101067.69;6275216;22;20031;-81
2022/11/26 08:34:16;;;;;;;2.13;1.90;;;;;;;5.97;100.00;101074.78;6248161;22;20539;-81
2022/11/26 08:36:42;;;;;;;0.50;0.50;;;;;;;5.97;100.00;101070.06;6248488;22;20385;-81
2022/11/26 08:39:12;;;;;;;1.40;1.38;;;;;;;6.00;100.00;101080.31;6273782;22;20012;-81
2022/11/26 08:41:37;;;;;;;1.25;1.15;;;;;;;6.02;100.00;101077.19;6247230;22;20019;-83
2022/11/26 08:44:03;;;;;;;2.00;1.85;;;;;;;6.03;100.00;101076.78;6273581;22;20106;-82
2022/11/26 08:46:29;;;;;;;3.25;2.75;;;;;;;6.03;100.00;101087.00;6273766;22;20521;-83
2022/11/26 08:48:57;;;;;;;1.38;1.27;;;;;;;6.11;100.00;101085.13;6273926;22;20022;-83
2022/11/26 08:51:24;;;;;;;1.40;1.30;;;;;;;6.14;100.00;101090.66;6275073;22;20000;-82
2022/11/26 08:53:49;;;;;;;3.63;2.75;;;;;;;6.21;100.00;101096.22;6271931;22;20019;-82
2022/11/26 08:56:14;;;;;;;1.73;1.63;;;;;;;6.25;100.00;101099.78;6245336;22;20012;-82
2022/11/26 08:58:43;;;;;;;1.95;1.65;;;;;;;6.31;100.00;101095.50;6243375;22;20024;-80
2022/11/26 09:01:16;;;;;;;0.20;0.20;;;;;;;6.32;100.00;101097.09;6244187;22;20058;-80
2022/11/26 09:03:42;;;;;;;2.78;1.98;;;;;;;6.42;100.00;101112.94;6244427;22;20023;-83
2022/11/26 09:06:08;;;;;;;2.03;1.88;;;;;;;6.41;100.00;101111.34;6242544;22;20023;-82
2022/11/26 09:09:11;;;;;;;0.43;0.43;;;;;;;6.47;100.00;101112.53;6244536;22;20016;-82
2022/11/26 09:11:20;;;;;;;2.13;1.55;;;;;;;6.54;100.00;101125.59;6247288;22;20020;-87
2022/11/26 09:13:46;;;;;;;2.80;2.42;;;;;;;6.65;100.00;101131.19;6270652;22;20072;-87
2022/11/26 09:16:11;;;;;;;3.10;2.35;;;;;;;6.79;100.00;101132.09;6270869;22;20024;-87
2022/11/26 09:18:37;;;;;;;2.63;2.05;;;;;;;6.93;100.00;101131.34;6271504;22;20054;-87
2022/11/26 09:21:03;;;;;;;1.25;1.08;;;;;;;7.10;100.00;101127.91;6243979;22;20058;-77
2022/11/26 09:23:29;;;;;;;1.58;1.35;;;;;;;7.19;100.00;101128.34;6218240;22;20046;-77
2022/11/26 09:25:54;;;;;;;1.60;1.50;;;;;;;7.29;100.00;101127.59;6271901;22;20020;-77
2022/11/26 09:28:19;;;;;;;0.65;0.65;;;;;;;7.37;100.00;101129.19;6272646;22;20037;-77
2022/11/26 09:30:45;;;;;;;2.78;2.30;;;;;;;7.52;100.00;101134.78;6269532;22;20047;-77
2022/11/26 09:33:10;;;;;;;1.58;1.27;;;;;;;7.66;100.00;101137.56;6219647;22;20039;-77
2022/11/26 09:35:36;;;;;;;2.28;2.00;;;;;;;7.80;100.00;101134.84;6218778;22;20015;-78
2022/11/26 09:38:01;;;;;;;1.85;1.65;;;;;;;8.01;100.00;101137.63;6271057;22;20380;-87
2022/11/26 09:40:40;;;;;;;1.42;1.33;;;;;;;8.23;100.00;101142.00;6271900;22;20433;-88
2022/11/26 09:43:35;;;;;;;2.92;2.05;;;;;;;8.34;100.00;101148.34;6244629;22;20345;-88
2022/11/26 09:46:00;;;;;;;2.78;1.45;;;;;;;8.39;100.00;101138.88;6215326;22;20559;-87
2022/11/26 09:48:28;;;;;;;3.25;2.20;;;;;;;8.49;100.00;101142.84;6244409;22;20012;-88
2022/11/26 09:51:00;;;;;;;2.72;2.40;;;;;;;8.39;100.00;101141.63;6271085;22;20012;-88
2022/11/26 09:53:30;;;;;;;3.00;2.22;;;;;;;8.42;100.00;101140.84;6243660;22;20019;-87
2022/11/26 09:55:55;;;;;;;1.10;0.98;;;;;;;8.25;100.00;101138.84;6244350;22;20015;-89
2022/11/26 09:58:26;;;;;;;3.30;2.42;;;;;;;8.22;100.00;101140.41;6271228;22;20032;-78
2022/11/26 10:00:54;;;;;;;3.95;1.95;;;;;;;8.20;100.00;101142.00;6270611;22;20019;-88
2022/11/26 10:03:22;;;;;;;3.67;3.35;;;;;;;8.19;100.00;101145.94;6270771;22;20441;-88
2022/11/26 10:06:09;;;;;;;0.88;0.82;;;;;;;8.25;100.00;101141.63;6251323;22;20098;-88
2022/11/26 10:09:32;;;;;;;1.42;1.35;;;;;;;8.16;100.00;101136.47;6254215;22;20028;-89
2022/11/26 10:12:20;;;;;;;3.55;2.40;;;;;;;8.30;100.00;101135.72;6123872;23;20014;-86
2022/11/26 10:14:46;;;;;;;2.60;2.38;;;;;;;8.22;100.00;101132.13;6121551;23;20246;-88
2022/11/26 10:17:28;;;;;;;2.83;2.53;;;;;;;8.14;100.00;101138.84;6224440;22;20442;-89
2022/11/26 10:20:12;;;;;;;2.75;2.53;;;;;;;8.22;100.00;101137.66;6270351;22;20090;-78
2022/11/26 10:23:09;;;;;;;2.25;2.13;;;;;;;8.33;100.00;101129.41;6271104;22;20095;-78
2022/11/26 10:25:54;;;;;;;2.65;2.35;;;;;;;8.43;100.00;101134.94;6229850;22;20555;-77
2022/11/26 10:28:21;;;;;;;2.08;1.73;;;;;;;8.47;100.00;101129.38;6244147;22;20046;-77
2022/11/26 10:30:55;;;;;;;2.95;2.75;;;;;;;8.53;100.00;101130.59;6268283;22;20046;-78
2022/11/26 10:33:20;;;;;;;3.85;2.72;;;;;;;8.56;100.00;101134.53;6243925;22;20446;-78
2022/11/26 10:35:48;;;;;;;2.20;1.95;;;;;;;8.55;100.00;101130.97;6270131;22;20020;-78
2022/11/26 10:38:14;;;;;;;1.70;0.88;;;;;;;8.48;100.00;101130.19;6243808;22;20008;-89
2022/11/26 10:40:39;;;;;;;4.40;4.03;;;;;;;8.43;100.00;101129.41;6270795;22;20113;-89
2022/11/26 10:43:04;;;;;;;2.08;1.98;;;;;;;8.50;100.00;101125.81;6270471;22;20015;-89
2022/11/26 10:45:40;;;;;;;1.27;1.17;;;;;;;8.53;100.00;101127.81;6270238;22;20438;-88
2022/11/26 10:48:27;;;;;;;0.47;0.47;;;;;;;8.29;100.00;101118.31;6243877;22;20094;-88
2022/11/26 10:51:29;;;;;;;1.70;1.27;;;;;;;8.30;100.00;101111.63;6272644;22;20026;-88
2022/11/26 10:54:00;;;;;;;6.38;3.42;;;;;;;8.21;100.00;101111.19;6173761;22;20038;-88
2022/11/26 10:56:55;;;;;;;1.67;1.58;;;;;;;8.28;100.00;101127.00;6289962;22;20019;-78
2022/11/26 10:59:39;;;;;;;3.75;2.70;;;;;;;8.30;100.00;101117.16;6213043;22;20016;-78
2022/11/26 11:02:24;;;;;;;3.40;2.92;;;;;;;8.26;100.00;101119.09;6244171;22;20019;-78
2022/11/26 11:04:51;;;;;;;3.40;3.05;;;;;;;8.34;100.00;101131.75;6270808;22;20073;-78
2022/11/26 11:07:36;;;;;;;0.73;0.73;;;;;;;8.35;100.00;101116.75;6243229;22;20035;-78
2022/11/26 11:10:09;;;;;;;0.57;0.57;;;;;;;8.34;100.00;101120.72;6271255;22;20483;-78
2022/11/26 11:12:35;;;;;;;0.95;0.93;;;;;;;8.41;100.00;101117.94;6271688;22;20020;-89
2022/11/26 11:15:23;;;;;;;1.77;0.75;;;;;;;8.49;100.00;101112.41;6244469;22;20000;-78
2022/11/26 11:18:02;;;;;;;0.85;0.80;;;;;;;8.56;100.00;101109.63;6218773;22;20079;-77
2022/11/26 11:20:30;;;;;;;1.08;0.98;;;;;;;8.62;100.00;101105.25;6271963;22;20016;-78
2022/11/26 11:23:02;;;;;;;1.23;1.23;;;;;;;8.65;100.00;101105.28;6243011;22;20049;-77
2022/11/26 11:25:30;;;;;;;12.55;2.17;;;;;;;8.64;100.00;101106.47;6245432;22;20345;-78
2022/11/26 11:28:15;;;;;;;0.32;0.32;;;;;;;8.69;100.00;101108.03;6244363;22;20102;-77
2022/11/26 11:30:43;;;;;;;1.10;1.02;;;;;;;8.67;100.00;101110.41;6244581;22;20019;-77
2022/11/26 11:33:18;;;;;;;1.13;1.02;;;;;;;8.63;100.00;101104.09;6245086;22;20014;-89
2022/11/26 11:35:43;;;;;;;0.98;0.93;;;;;;;8.74;100.00;101107.59;6273066;22;20019;-89